Time;durP1;ratioP1;P1;durP2;ratioP2;P2;SDS_P1;SDS_P2;PMS_P1;PMS_P2;Temp;Humidity;BMP_temperature;BMP_pressure;BME280_temperature;BME280_humidity;BME280_pressure;Samples;Min_cycle;Max_cycle;Signal;HPM_P1;HPM_P2
2023/12/09 00:01:53;;;;;;;105.07;34.05;;;;;;;;;;5012856;28;20053;-74
2023/12/09 00:04:19;;;;;;;103.35;34.45;;;;;;;;;;5007216;28;20046;-74
2023/12/09 00:06:46;;;;;;;116.28;34.90;;;;;;;;;;5008677;28;20049;-74
2023/12/09 00:09:13;;;;;;;119.88;34.45;;;;;;;;;;5011982;28;20045;-74
2023/12/09 00:11:39;;;;;;;111.38;35.08;;;;;;;;;;4995012;28;20042;-74
2023/12/09 00:14:05;;;;;;;115.43;34.42;;;;;;;;;;5006790;28;20392;-74
2023/12/09 00:16:31;;;;;;;106.18;34.13;;;;;;;;;;5005702;28;20049;-74
2023/12/09 00:18:57;;;;;;;106.95;35.63;;;;;;;;;;5004342;28;20068;-74
2023/12/09 00:21:24;;;;;;;118.13;35.10;;;;;;;;;;5011944;28;20115;-74
2023/12/09 00:23:50;;;;;;;114.18;35.03;;;;;;;;;;5010415;28;20057;-74
2023/12/09 00:26:16;;;;;;;105.88;34.25;;;;;;;;;;5012476;28;20041;-74
2023/12/09 00:28:42;;;;;;;121.00;36.58;;;;;;;;;;4982732;28;20042;-74
2023/12/09 00:31:08;;;;;;;108.50;35.70;;;;;;;;;;5011667;28;20042;-74
2023/12/09 00:33:35;;;;;;;99.70;34.88;;;;;;;;;;5004034;28;20057;-74
2023/12/09 00:36:01;;;;;;;117.82;35.42;;;;;;;;;;4994159;28;20050;-74
2023/12/09 00:38:27;;;;;;;113.43;35.30;;;;;;;;;;5000034;28;20034;-74
2023/12/09 00:40:53;;;;;;;117.95;34.72;;;;;;;;;;5011974;28;20046;-74
2023/12/09 00:43:19;;;;;;;108.13;35.40;;;;;;;;;;5011840;28;20050;-74
2023/12/09 00:45:45;;;;;;;110.43;36.03;;;;;;;;;;5011628;28;20046;-74
2023/12/09 00:48:11;;;;;;;115.28;34.63;;;;;;;;;;5010077;28;20046;-74
2023/12/09 00:50:37;;;;;;;105.22;34.08;;;;;;;;;;5011151;28;20100;-74
2023/12/09 00:53:04;;;;;;;111.95;35.13;;;;;;;;;;5012629;28;20042;-74
2023/12/09 00:55:30;;;;;;;105.47;33.90;;;;;;;;;;5012849;28;20053;-74
2023/12/09 00:57:56;;;;;;;109.97;35.05;;;;;;;;;;5011594;28;20108;-74
2023/12/09 01:00:25;;;;;;;101.75;34.75;;;;;;;;;;5012385;28;20484;-74
2023/12/09 01:02:51;;;;;;;113.05;34.65;;;;;;;;;;4994850;28;20070;-74
2023/12/09 01:05:17;;;;;;;101.28;34.33;;;;;;;;;;5000584;28;20038;-74
2023/12/09 01:07:43;;;;;;;115.88;34.53;;;;;;;;;;5015639;28;20042;-74
2023/12/09 01:10:09;;;;;;;97.00;33.28;;;;;;;;;;5015777;28;20046;-74
2023/12/09 01:12:35;;;;;;;103.45;33.83;;;;;;;;;;5011643;28;20415;-74
2023/12/09 01:15:02;;;;;;;106.22;34.03;;;;;;;;;;5015132;28;20380;-74
2023/12/09 01:17:28;;;;;;;95.95;34.67;;;;;;;;;;5003562;28;20050;-74
2023/12/09 01:19:54;;;;;;;101.20;33.83;;;;;;;;;;5012441;28;20510;-74
2023/12/09 01:22:21;;;;;;;94.97;31.30;;;;;;;;;;4998968;28;20057;-74
2023/12/09 01:24:47;;;;;;;100.47;31.70;;;;;;;;;;5014411;28;20471;-74
2023/12/09 01:27:13;;;;;;;90.45;31.00;;;;;;;;;;5015732;28;20085;-74
2023/12/09 01:29:39;;;;;;;74.10;30.85;;;;;;;;;;5015651;28;20514;-74
2023/12/09 01:32:06;;;;;;;88.95;30.05;;;;;;;;;;5011832;28;20049;-74
2023/12/09 01:34:32;;;;;;;91.15;32.00;;;;;;;;;;5013831;28;20056;-74
2023/12/09 01:36:58;;;;;;;90.65;30.08;;;;;;;;;;5012310;28;20099;-74
2023/12/09 01:39:24;;;;;;;83.63;30.65;;;;;;;;;;5010775;28;20418;-74
2023/12/09 01:41:50;;;;;;;78.13;28.30;;;;;;;;;;5013473;28;20111;-74
2023/12/09 01:44:17;;;;;;;85.80;29.30;;;;;;;;;;5005491;28;20042;-74
2023/12/09 01:46:43;;;;;;;88.43;31.05;;;;;;;;;;5014566;28;20034;-74
2023/12/09 01:49:10;;;;;;;80.60;30.20;;;;;;;;;;5013780;28;20414;-74
2023/12/09 01:51:38;;;;;;;101.10;32.25;;;;;;;;;;5013103;28;20427;-74
2023/12/09 01:54:04;;;;;;;94.75;31.52;;;;;;;;;;5013279;28;20131;-74
2023/12/09 01:56:30;;;;;;;83.18;29.63;;;;;;;;;;5013014;28;20551;-74
2023/12/09 01:58:56;;;;;;;86.72;29.30;;;;;;;;;;4996868;28;20046;-74
2023/12/09 02:01:23;;;;;;;94.97;30.67;;;;;;;;;;4996540;28;20054;-74
2023/12/09 02:03:50;;;;;;;93.57;31.30;;;;;;;;;;5009536;28;20041;-74
2023/12/09 02:06:16;;;;;;;83.05;28.90;;;;;;;;;;5004755;28;20046;-74
2023/12/09 02:08:43;;;;;;;80.93;28.40;;;;;;;;;;5007040;28;20042;-74
2023/12/09 02:11:12;;;;;;;93.35;28.95;;;;;;;;;;5012264;28;20496;-74
2023/12/09 02:13:52;;;;;;;83.07;29.35;;;;;;;;;;5000434;28;20037;-74
2023/12/09 02:16:23;;;;;;;79.90;27.95;;;;;;;;;;4999924;28;20138;-74
2023/12/09 02:18:50;;;;;;;79.55;29.13;;;;;;;;;;5003096;28;20120;-74
2023/12/09 02:21:16;;;;;;;71.70;26.92;;;;;;;;;;5004889;28;20042;-74
2023/12/09 02:23:42;;;;;;;80.18;29.23;;;;;;;;;;4999338;28;20514;-74
2023/12/09 02:26:11;;;;;;;79.93;27.55;;;;;;;;;;5012374;28;20487;-74
2023/12/09 02:28:39;;;;;;;76.28;27.35;;;;;;;;;;5011207;28;20046;-74
2023/12/09 02:31:09;;;;;;;74.28;27.40;;;;;;;;;;5015040;28;20050;-74
2023/12/09 02:33:35;;;;;;;89.88;28.80;;;;;;;;;;5010241;28;20046;-74
2023/12/09 02:36:02;;;;;;;74.18;27.27;;;;;;;;;;5002625;28;20043;-74
2023/12/09 02:38:28;;;;;;;76.85;27.50;;;;;;;;;;5008631;28;20038;-74
2023/12/09 02:40:55;;;;;;;73.68;25.73;;;;;;;;;;5012485;28;20042;-74
2023/12/09 02:43:21;;;;;;;76.05;27.77;;;;;;;;;;5013437;28;20049;-74
2023/12/09 02:45:47;;;;;;;73.78;26.38;;;;;;;;;;5013363;28;20050;-74
2023/12/09 02:48:13;;;;;;;67.20;27.05;;;;;;;;;;5014292;28;20042;-74
2023/12/09 02:50:39;;;;;;;68.63;24.80;;;;;;;;;;5014622;28;20046;-74
2023/12/09 02:53:05;;;;;;;69.15;25.50;;;;;;;;;;5010351;28;20124;-74
2023/12/09 02:55:32;;;;;;;69.13;27.30;;;;;;;;;;4993892;28;20042;-74
2023/12/09 02:57:58;;;;;;;72.30;26.10;;;;;;;;;;4995103;28;20046;-74
2023/12/09 03:00:24;;;;;;;74.65;25.80;;;;;;;;;;5002576;28;20045;-74
2023/12/09 03:02:50;;;;;;;59.95;26.00;;;;;;;;;;5013534;28;20058;-74
2023/12/09 03:05:16;;;;;;;74.47;25.65;;;;;;;;;;5012552;28;20104;-74
2023/12/09 03:07:42;;;;;;;69.45;25.65;;;;;;;;;;5014092;28;20427;-74
2023/12/09 03:10:08;;;;;;;69.05;24.42;;;;;;;;;;5000890;28;20416;-74
2023/12/09 03:12:34;;;;;;;72.78;24.98;;;;;;;;;;5009575;28;20472;-74
2023/12/09 03:15:05;;;;;;;70.88;25.95;;;;;;;;;;4994661;28;20496;-74
2023/12/09 03:17:31;;;;;;;72.45;25.88;;;;;;;;;;5004076;28;20513;-74
2023/12/09 03:19:57;;;;;;;78.05;25.75;;;;;;;;;;5014055;28;20052;-74
2023/12/09 03:22:23;;;;;;;67.05;23.60;;;;;;;;;;5013769;28;20520;-74
2023/12/09 03:24:49;;;;;;;75.10;24.83;;;;;;;;;;5012736;28;20117;-74
2023/12/09 03:27:15;;;;;;;69.75;23.77;;;;;;;;;;5013397;28;20088;-74
2023/12/09 03:29:41;;;;;;;72.03;23.73;;;;;;;;;;5012319;28;20042;-74
2023/12/09 03:32:07;;;;;;;68.53;23.83;;;;;;;;;;5013277;28;20121;-74
2023/12/09 03:34:33;;;;;;;65.10;23.08;;;;;;;;;;5010791;28;20050;-74
2023/12/09 03:36:59;;;;;;;69.80;23.77;;;;;;;;;;4995978;28;20049;-74
2023/12/09 03:39:25;;;;;;;67.07;23.70;;;;;;;;;;4994343;28;20054;-74
2023/12/09 03:41:51;;;;;;;58.70;22.88;;;;;;;;;;4994197;28;20129;-74
2023/12/09 03:44:17;;;;;;;58.22;21.58;;;;;;;;;;5009531;28;20046;-74
2023/12/09 03:46:43;;;;;;;61.80;22.55;;;;;;;;;;5012737;28;20042;-74
2023/12/09 03:49:09;;;;;;;61.80;22.23;;;;;;;;;;4996888;28;20053;-74
2023/12/09 03:51:35;;;;;;;61.30;21.33;;;;;;;;;;4996191;28;20038;-74
2023/12/09 03:54:01;;;;;;;66.20;22.42;;;;;;;;;;5011619;28;20038;-74
2023/12/09 03:56:27;;;;;;;65.13;21.00;;;;;;;;;;5012459;28;20046;-74
2023/12/09 03:58:53;;;;;;;55.75;19.92;;;;;;;;;;5008320;28;20050;-74
2023/12/09 04:01:22;;;;;;;61.08;20.10;;;;;;;;;;4993628;28;20058;-74
2023/12/09 04:03:48;;;;;;;63.90;19.92;;;;;;;;;;4993396;28;20054;-74
2023/12/09 04:06:14;;;;;;;60.95;19.30;;;;;;;;;;4998575;28;20041;-74
2023/12/09 04:08:40;;;;;;;53.55;19.75;;;;;;;;;;5009404;28;20046;-73
2023/12/09 04:11:06;;;;;;;60.85;20.20;;;;;;;;;;4992301;28;20488;-74
2023/12/09 04:13:32;;;;;;;56.30;19.35;;;;;;;;;;5003662;28;20042;-74
2023/12/09 04:15:59;;;;;;;54.30;19.92;;;;;;;;;;5005276;28;20041;-74
2023/12/09 04:18:25;;;;;;;55.35;19.48;;;;;;;;;;5008565;28;20504;-74
2023/12/09 04:20:51;;;;;;;53.30;19.63;;;;;;;;;;4996893;28;20427;-74
2023/12/09 04:23:18;;;;;;;53.55;18.88;;;;;;;;;;5012050;28;20080;-74
2023/12/09 04:25:44;;;;;;;51.95;19.45;;;;;;;;;;5011223;28;20061;-74
2023/12/09 04:28:11;;;;;;;52.88;18.52;;;;;;;;;;5013151;28;20037;-74
2023/12/09 04:30:37;;;;;;;50.55;18.77;;;;;;;;;;5012807;28;20042;-74
2023/12/09 04:33:03;;;;;;;52.55;20.20;;;;;;;;;;5013131;28;20038;-74
2023/12/09 04:35:30;;;;;;;54.08;18.95;;;;;;;;;;5008665;28;20066;-74
2023/12/09 04:37:56;;;;;;;49.90;17.85;;;;;;;;;;4991983;28;20038;-74
2023/12/09 04:40:22;;;;;;;52.88;19.13;;;;;;;;;;4996629;28;20508;-74
2023/12/09 04:42:48;;;;;;;52.00;19.13;;;;;;;;;;4997509;28;20057;-74
2023/12/09 04:45:14;;;;;;;59.10;19.98;;;;;;;;;;4997480;28;20132;-74
2023/12/09 04:47:40;;;;;;;57.00;18.17;;;;;;;;;;5006002;28;20403;-74
2023/12/09 04:50:10;;;;;;;60.65;18.75;;;;;;;;;;5016510;28;20404;-74
2023/12/09 04:52:36;;;;;;;54.03;19.43;;;;;;;;;;5015897;28;20058;-74
2023/12/09 04:55:03;;;;;;;53.55;19.63;;;;;;;;;;5010269;28;20049;-74
2023/12/09 04:57:29;;;;;;;57.67;19.80;;;;;;;;;;4997895;28;20065;-74
2023/12/09 04:59:55;;;;;;;60.40;19.80;;;;;;;;;;5010051;28;20116;-74
2023/12/09 05:02:21;;;;;;;56.92;19.90;;;;;;;;;;5011870;28;20049;-74
2023/12/09 05:04:48;;;;;;;59.85;19.25;;;;;;;;;;4996274;28;20053;-74
2023/12/09 05:07:14;;;;;;;54.72;19.70;;;;;;;;;;5008499;28;20415;-74
2023/12/09 05:09:40;;;;;;;53.10;19.02;;;;;;;;;;5016458;28;20049;-74
2023/12/09 05:12:06;;;;;;;57.58;18.58;;;;;;;;;;5009761;28;20049;-74
2023/12/09 05:14:32;;;;;;;52.85;19.00;;;;;;;;;;4995580;28;20046;-75
2023/12/09 05:16:58;;;;;;;56.35;19.33;;;;;;;;;;4998187;28;20054;-74
2023/12/09 05:19:24;;;;;;;53.65;18.60;;;;;;;;;;5014778;28;20065;-74
2023/12/09 05:21:50;;;;;;;46.40;18.15;;;;;;;;;;5016044;28;20057;-74
2023/12/09 05:24:18;;;;;;;50.03;18.95;;;;;;;;;;5010466;28;20125;-74
2023/12/09 05:26:44;;;;;;;54.53;18.63;;;;;;;;;;5016412;28;20061;-74
2023/12/09 05:29:10;;;;;;;59.67;18.55;;;;;;;;;;5006606;28;20125;-74
2023/12/09 05:31:36;;;;;;;52.50;17.95;;;;;;;;;;5003428;28;20406;-74
2023/12/09 05:34:02;;;;;;;54.13;19.15;;;;;;;;;;4998523;28;20403;-74
2023/12/09 05:36:28;;;;;;;53.28;18.25;;;;;;;;;;5011597;28;20053;-75
2023/12/09 05:38:54;;;;;;;51.13;17.67;;;;;;;;;;5013792;28;20082;-74
2023/12/09 05:41:20;;;;;;;58.42;18.17;;;;;;;;;;5013464;28;20056;-74
2023/12/09 05:43:46;;;;;;;49.03;17.35;;;;;;;;;;5002019;28;20050;-74
2023/12/09 05:46:19;;;;;;;50.25;17.85;;;;;;;;;;5000283;28;20068;-74
2023/12/09 05:48:46;;;;;;;40.88;16.60;;;;;;;;;;4996415;28;20041;-74
2023/12/09 05:51:12;;;;;;;49.17;17.58;;;;;;;;;;5003942;28;20202;-74
2023/12/09 05:53:38;;;;;;;51.42;17.17;;;;;;;;;;4996435;28;20058;-74
2023/12/09 05:56:04;;;;;;;56.80;18.48;;;;;;;;;;5002466;28;20072;-74
2023/12/09 05:58:30;;;;;;;54.67;18.08;;;;;;;;;;5008443;28;20037;-74
2023/12/09 06:00:56;;;;;;;51.42;18.20;;;;;;;;;;5015680;28;20046;-74
2023/12/09 06:03:22;;;;;;;53.35;18.33;;;;;;;;;;5009721;28;20038;-74
2023/12/09 06:05:49;;;;;;;54.00;18.65;;;;;;;;;;5008867;28;20057;-74
2023/12/09 06:08:15;;;;;;;48.75;18.52;;;;;;;;;;5000760;28;20056;-74
2023/12/09 06:10:41;;;;;;;52.60;17.90;;;;;;;;;;5006607;28;20045;-75
2023/12/09 06:13:07;;;;;;;55.33;17.95;;;;;;;;;;5014364;28;20048;-74
2023/12/09 06:15:33;;;;;;;45.47;16.73;;;;;;;;;;5002592;28;20533;-74
2023/12/09 06:17:59;;;;;;;46.60;16.42;;;;;;;;;;4995565;28;20081;-74
2023/12/09 06:20:25;;;;;;;49.55;17.67;;;;;;;;;;5009752;28;20058;-73
2023/12/09 06:22:51;;;;;;;44.78;17.27;;;;;;;;;;5009339;28;20046;-74
2023/12/09 06:25:17;;;;;;;55.85;16.95;;;;;;;;;;5006397;28;20108;-74
2023/12/09 06:27:43;;;;;;;50.70;16.05;;;;;;;;;;5005857;28;20124;-74
2023/12/09 06:30:10;;;;;;;39.47;15.00;;;;;;;;;;5006216;28;20053;-75
2023/12/09 06:32:36;;;;;;;43.75;15.95;;;;;;;;;;5013372;28;20050;-74
2023/12/09 06:35:02;;;;;;;39.72;15.38;;;;;;;;;;5006599;28;20491;-75
2023/12/09 06:37:28;;;;;;;43.50;15.95;;;;;;;;;;5003103;28;20046;-74
2023/12/09 06:39:54;;;;;;;46.88;14.80;;;;;;;;;;5011770;28;20042;-74
2023/12/09 06:42:20;;;;;;;38.80;14.15;;;;;;;;;;5014601;28;20491;-74
2023/12/09 06:44:46;;;;;;;36.30;14.80;;;;;;;;;;5014481;28;20488;-74
2023/12/09 06:47:12;;;;;;;35.80;14.15;;;;;;;;;;5011208;28;20522;-74
2023/12/09 06:49:38;;;;;;;43.33;14.38;;;;;;;;;;5014747;28;20451;-74
2023/12/09 06:52:04;;;;;;;43.15;13.95;;;;;;;;;;5013258;28;20481;-74
2023/12/09 06:54:30;;;;;;;42.90;14.57;;;;;;;;;;5007434;28;20037;-73
2023/12/09 06:56:57;;;;;;;50.45;15.63;;;;;;;;;;5002603;28;20046;-74
2023/12/09 06:59:23;;;;;;;38.00;12.90;;;;;;;;;;4995305;28;20050;-74
2023/12/09 07:01:49;;;;;;;40.92;13.52;;;;;;;;;;5000888;28;20046;-74
2023/12/09 07:04:16;;;;;;;36.83;12.77;;;;;;;;;;4996395;28;20054;-74
2023/12/09 07:06:42;;;;;;;41.10;12.45;;;;;;;;;;4995681;28;20125;-73
2023/12/09 07:09:10;;;;;;;38.97;12.82;;;;;;;;;;4995347;28;20038;-74
2023/12/09 07:11:36;;;;;;;38.10;13.27;;;;;;;;;;5006221;28;20053;-74
2023/12/09 07:14:02;;;;;;;34.22;13.35;;;;;;;;;;5013041;28;20442;-75
2023/12/09 07:16:29;;;;;;;42.58;12.20;;;;;;;;;;5012985;28;20041;-74
2023/12/09 07:18:59;;;;;;;34.85;12.10;;;;;;;;;;5009027;28;20480;-74
2023/12/09 07:21:26;;;;;;;42.17;11.65;;;;;;;;;;5010384;28;20096;-74
2023/12/09 07:23:52;;;;;;;35.40;11.65;;;;;;;;;;5001185;28;20050;-74
2023/12/09 07:26:18;;;;;;;35.38;11.98;;;;;;;;;;5012132;28;20041;-74
2023/12/09 07:28:45;;;;;;;37.95;11.95;;;;;;;;;;5002948;28;20045;-74
2023/12/09 07:31:14;;;;;;;35.65;11.43;;;;;;;;;;5005659;28;20034;-74
2023/12/09 07:33:41;;;;;;;41.75;12.15;;;;;;;;;;5003351;28;20050;-74
2023/12/09 07:36:07;;;;;;;38.75;11.55;;;;;;;;;;5004624;28;20464;-74
2023/12/09 07:38:33;;;;;;;36.92;11.05;;;;;;;;;;5008637;28;20463;-74
2023/12/09 07:40:59;;;;;;;34.45;10.90;;;;;;;;;;5012579;28;20042;-75
2023/12/09 07:43:26;;;;;;;36.05;10.68;;;;;;;;;;5011709;28;20049;-74
2023/12/09 07:45:52;;;;;;;37.67;9.65;;;;;;;;;;5003195;28;20143;-75
2023/12/09 07:48:18;;;;;;;34.42;10.20;;;;;;;;;;5010214;28;20056;-74
2023/12/09 07:50:44;;;;;;;45.42;10.48;;;;;;;;;;5006190;28;20047;-75
2023/12/09 07:53:10;;;;;;;29.83;8.98;;;;;;;;;;5009589;28;20060;-74
2023/12/09 07:55:36;;;;;;;27.38;9.05;;;;;;;;;;5012762;28;21066;-75
2023/12/09 07:58:02;;;;;;;25.42;8.70;;;;;;;;;;5012831;28;20113;-74
2023/12/09 08:00:28;;;;;;;29.73;8.25;;;;;;;;;;5013000;28;20041;-75
2023/12/09 08:02:55;;;;;;;33.85;8.73;;;;;;;;;;5010094;28;20052;-75
2023/12/09 08:05:22;;;;;;;31.70;8.45;;;;;;;;;;5012957;28;20042;-75
2023/12/09 08:07:48;;;;;;;37.22;9.35;;;;;;;;;;5012629;28;20038;-75
2023/12/09 08:10:14;;;;;;;35.58;8.48;;;;;;;;;;5012437;28;20049;-75
2023/12/09 08:12:40;;;;;;;31.10;7.57;;;;;;;;;;5011500;28;20049;-75
2023/12/09 08:15:07;;;;;;;31.95;7.53;;;;;;;;;;5012024;28;20048;-74
2023/12/09 08:17:33;;;;;;;28.00;6.95;;;;;;;;;;5012337;28;20046;-75
2023/12/09 08:19:59;;;;;;;22.10;7.18;;;;;;;;;;5002427;28;20085;-75
2023/12/09 08:22:25;;;;;;;27.10;7.63;;;;;;;;;;4992753;28;20058;-74
2023/12/09 08:24:51;;;;;;;28.95;8.07;;;;;;;;;;4992838;28;20046;-75
2023/12/09 08:27:17;;;;;;;35.13;7.25;;;;;;;;;;4980136;28;20046;-75
2023/12/09 08:29:44;;;;;;;31.00;6.60;;;;;;;;;;4999222;28;20050;-75
2023/12/09 08:32:10;;;;;;;27.80;6.55;;;;;;;;;;5002116;28;20049;-75
2023/12/09 08:34:36;;;;;;;31.20;6.45;;;;;;;;;;5012226;28;20038;-75
2023/12/09 08:37:02;;;;;;;30.35;6.15;;;;;;;;;;5010868;28;20049;-75
2023/12/09 08:39:29;;;;;;;28.02;6.68;;;;;;;;;;5002843;28;20045;-75
2023/12/09 08:41:55;;;;;;;29.05;5.95;;;;;;;;;;5008644;28;20053;-75
2023/12/09 08:44:21;;;;;;;29.15;5.93;;;;;;;;;;5010841;28;20152;-75
2023/12/09 08:46:47;;;;;;;35.25;6.47;;;;;;;;;;5003806;28;20041;-75
2023/12/09 08:49:13;;;;;;;28.02;6.10;;;;;;;;;;5007078;28;20046;-75
2023/12/09 08:51:46;;;;;;;20.90;4.95;;;;;;;;;;5011414;28;20049;-75
2023/12/09 08:54:12;;;;;;;25.42;5.40;;;;;;;;;;5004606;28;20385;-74
2023/12/09 08:56:38;;;;;;;22.85;5.70;;;;;;;;;;4993103;28;20046;-74
2023/12/09 08:59:10;;;;;;;23.00;5.47;;;;;;;;;;4996593;28;20050;-74
2023/12/09 09:01:37;;;;;;;26.65;5.20;;;;;;;;;;4992654;28;20065;-74
2023/12/09 09:04:06;;;;;;;25.02;6.25;;;;;;;;;;4996271;28;20419;-74
2023/12/09 09:06:32;;;;;;;20.33;5.25;;;;;;;;;;4983115;28;20383;-74
2023/12/09 09:08:58;;;;;;;25.38;5.72;;;;;;;;;;4996548;28;20069;-73
2023/12/09 09:11:24;;;;;;;23.17;5.55;;;;;;;;;;4993442;28;20043;-74
2023/12/09 09:13:50;;;;;;;23.58;5.43;;;;;;;;;;4999350;28;20077;-74
2023/12/09 09:16:17;;;;;;;25.60;5.18;;;;;;;;;;4996833;28;20057;-75
2023/12/09 09:18:43;;;;;;;29.27;5.32;;;;;;;;;;5008533;28;20074;-75
2023/12/09 09:21:09;;;;;;;24.67;4.97;;;;;;;;;;5011202;28;20042;-75
2023/12/09 09:23:35;;;;;;;31.63;4.95;;;;;;;;;;5001251;28;20042;-75
2023/12/09 09:26:02;;;;;;;18.35;4.85;;;;;;;;;;5008004;28;20085;-75
2023/12/09 09:28:28;;;;;;;26.15;6.70;;;;;;;;;;5010977;28;20050;-75
2023/12/09 09:30:54;;;;;;;26.05;6.00;;;;;;;;;;4997754;28;20050;-75
2023/12/09 09:33:20;;;;;;;20.23;4.95;;;;;;;;;;5009882;28;20049;-75
2023/12/09 09:35:48;;;;;;;24.60;5.07;;;;;;;;;;5003330;28;20046;-75
2023/12/09 09:38:14;;;;;;;23.70;4.60;;;;;;;;;;5004911;28;20057;-75
2023/12/09 09:40:41;;;;;;;22.33;5.22;;;;;;;;;;4994978;28;20049;-74
2023/12/09 09:43:21;;;;;;;22.58;4.47;;;;;;;;;;4995759;28;20120;-75
2023/12/09 09:45:48;;;;;;;21.17;4.47;;;;;;;;;;4995750;28;20039;-75
2023/12/09 09:48:16;;;;;;;19.23;4.50;;;;;;;;;;4995754;28;20104;-75
2023/12/09 09:50:45;;;;;;;24.75;5.38;;;;;;;;;;4978028;28;20126;-75
2023/12/09 09:53:16;;;;;;;25.55;4.68;;;;;;;;;;4995512;28;20058;-75
2023/12/09 09:55:42;;;;;;;;;;;;;;;;;;5010409;28;20083;-75
2023/12/09 09:58:09;;;;;;;22.23;4.50;;;;;;;;;;5014940;28;19933;-75
2023/12/09 10:00:35;;;;;;;23.15;4.72;;;;;;;;;;5015211;28;20044;-75
2023/12/09 10:03:01;;;;;;;25.52;4.90;;;;;;;;;;5007701;28;20096;-75
2023/12/09 10:05:27;;;;;;;23.60;5.57;;;;;;;;;;5006651;28;20049;-75
2023/12/09 10:07:55;;;;;;;23.30;5.05;;;;;;;;;;5013072;28;20058;-75
2023/12/09 10:10:21;;;;;;;25.77;5.50;;;;;;;;;;4998638;28;20504;-75
2023/12/09 10:12:47;;;;;;;20.55;5.38;;;;;;;;;;5013481;28;20046;-75
2023/12/09 10:15:13;;;;;;;20.30;5.40;;;;;;;;;;4990111;28;20132;-75
2023/12/09 10:17:39;;;;;;;21.33;5.00;;;;;;;;;;5013399;28;20057;-75
2023/12/09 10:20:06;;;;;;;21.15;5.30;;;;;;;;;;5007925;28;20054;-75
2023/12/09 10:22:32;;;;;;;19.42;5.07;;;;;;;;;;5013099;28;20046;-74
2023/12/09 10:24:58;;;;;;;24.83;6.25;;;;;;;;;;5013434;28;20108;-75
2023/12/09 10:27:25;;;;;;;26.50;5.97;;;;;;;;;;4997530;28;20046;-75
2023/12/09 10:29:56;;;;;;;25.92;5.47;;;;;;;;;;4998473;28;20050;-75
2023/12/09 10:32:22;;;;;;;18.55;5.20;;;;;;;;;;5007126;28;20050;-75
2023/12/09 10:34:49;;;;;;;19.25;4.68;;;;;;;;;;5008859;28;20041;-75
2023/12/09 10:37:16;;;;;;;16.38;5.28;;;;;;;;;;5004837;28;20495;-75
2023/12/09 10:39:43;;;;;;;17.90;4.65;;;;;;;;;;5005396;28;20395;-75
2023/12/09 10:42:09;;;;;;;19.20;4.60;;;;;;;;;;4999472;28;20498;-75
2023/12/09 10:44:35;;;;;;;31.73;4.65;;;;;;;;;;5010959;28;20057;-74
2023/12/09 10:47:01;;;;;;;21.92;4.47;;;;;;;;;;5005213;28;20042;-74
2023/12/09 10:49:27;;;;;;;22.25;4.45;;;;;;;;;;5008755;28;20068;-75
2023/12/09 10:51:53;;;;;;;21.17;4.80;;;;;;;;;;5008049;28;20046;-75
2023/12/09 10:54:20;;;;;;;18.90;4.15;;;;;;;;;;5003341;28;20104;-75
2023/12/09 10:56:46;;;;;;;23.50;4.75;;;;;;;;;;5013464;28;20121;-76
2023/12/09 10:59:14;;;;;;;16.85;3.75;;;;;;;;;;4993081;28;20045;-76
2023/12/09 11:01:40;;;;;;;16.63;4.20;;;;;;;;;;4996743;28;20054;-75
2023/12/09 11:04:07;;;;;;;19.88;4.00;;;;;;;;;;4995426;28;20058;-75
2023/12/09 11:06:35;;;;;;;17.98;4.53;;;;;;;;;;4993286;28;20361;-75
2023/12/09 11:09:01;;;;;;;15.68;4.00;;;;;;;;;;4994460;28;20045;-75
2023/12/09 11:11:27;;;;;;;16.27;3.75;;;;;;;;;;5013108;28;20546;-75
2023/12/09 11:13:54;;;;;;;16.05;3.70;;;;;;;;;;5013768;28;20050;-75
2023/12/09 11:16:23;;;;;;;16.13;4.20;;;;;;;;;;5012843;28;20049;-75
2023/12/09 11:18:56;;;;;;;14.93;3.40;;;;;;;;;;5002137;28;20037;-75
2023/12/09 11:21:26;;;;;;;13.93;3.28;;;;;;;;;;5012847;28;20050;-75
2023/12/09 11:23:53;;;;;;;15.95;3.45;;;;;;;;;;4994073;28;20050;-75
2023/12/09 11:26:28;;;;;;;14.98;3.55;;;;;;;;;;5007317;28;20058;-75
2023/12/09 11:29:06;;;;;;;14.55;3.50;;;;;;;;;;4993741;28;20081;-75
2023/12/09 11:31:33;;;;;;;16.55;3.45;;;;;;;;;;4993857;28;20042;-75
2023/12/09 11:34:00;;;;;;;18.42;3.78;;;;;;;;;;5011565;28;20101;-75
2023/12/09 11:36:29;;;;;;;14.85;3.80;;;;;;;;;;5008391;28;20050;-75
2023/12/09 11:38:55;;;;;;;12.15;3.33;;;;;;;;;;4993495;28;20164;-75
2023/12/09 11:41:21;;;;;;;14.60;4.75;;;;;;;;;;5011176;28;20480;-75
2023/12/09 11:43:48;;;;;;;16.17;4.25;;;;;;;;;;5012766;28;20052;-75
2023/12/09 11:46:14;;;;;;;15.05;3.50;;;;;;;;;;5012382;28;20415;-75
2023/12/09 11:48:40;;;;;;;14.10;3.53;;;;;;;;;;5009620;28;20069;-75
2023/12/09 11:51:07;;;;;;;15.98;3.22;;;;;;;;;;4995589;28;20061;-75
2023/12/09 11:53:34;;;;;;;15.55;3.30;;;;;;;;;;5012104;28;20511;-75
2023/12/09 11:56:00;;;;;;;15.32;3.40;;;;;;;;;;5012206;28;20052;-75
2023/12/09 11:58:26;;;;;;;11.90;3.03;;;;;;;;;;5007973;28;20041;-75
2023/12/09 12:00:52;;;;;;;13.95;3.15;;;;;;;;;;4999874;28;20062;-75
2023/12/09 12:03:19;;;;;;;11.75;3.42;;;;;;;;;;5012139;28;20085;-75
2023/12/09 12:05:45;;;;;;;15.75;3.45;;;;;;;;;;5012314;28;20056;-75
2023/12/09 12:08:15;;;;;;;14.13;3.13;;;;;;;;;;5002047;28;20057;-75
2023/12/09 12:10:41;;;;;;;14.07;3.08;;;;;;;;;;5007641;28;20479;-75
2023/12/09 12:13:07;;;;;;;12.20;3.00;;;;;;;;;;5008607;28;20064;-75
2023/12/09 12:15:35;;;;;;;14.95;3.80;;;;;;;;;;4995186;28;20153;-75
2023/12/09 12:18:01;;;;;;;13.15;2.88;;;;;;;;;;5008389;28;20054;-75
2023/12/09 12:20:27;;;;;;;13.60;3.15;;;;;;;;;;5009018;28;20068;-75
2023/12/09 12:22:54;;;;;;;15.48;3.63;;;;;;;;;;5006434;28;20060;-75
2023/12/09 12:25:20;;;;;;;13.70;3.42;;;;;;;;;;5010476;28;20535;-75
2023/12/09 12:27:46;;;;;;;15.93;4.20;;;;;;;;;;5004186;28;20046;-75
2023/12/09 12:30:15;;;;;;;15.35;3.47;;;;;;;;;;5009774;28;20042;-75
2023/12/09 12:32:42;;;;;;;14.25;3.50;;;;;;;;;;5007430;28;20137;-75
2023/12/09 12:35:08;;;;;;;13.52;3.92;;;;;;;;;;4999518;28;20056;-75
2023/12/09 12:37:35;;;;;;;18.15;3.78;;;;;;;;;;5011881;28;20129;-75
2023/12/09 12:40:01;;;;;;;12.55;3.53;;;;;;;;;;5009977;28;20050;-75
2023/12/09 12:42:27;;;;;;;15.02;4.25;;;;;;;;;;5011742;28;20061;-75
2023/12/09 12:44:53;;;;;;;12.77;3.95;;;;;;;;;;5011372;28;20068;-75
2023/12/09 12:47:19;;;;;;;12.45;3.15;;;;;;;;;;5009032;28;20137;-75
2023/12/09 12:49:46;;;;;;;12.45;3.05;;;;;;;;;;5008982;28;20486;-75
2023/12/09 12:52:12;;;;;;;14.38;3.67;;;;;;;;;;5008097;28;20038;-75
2023/12/09 12:54:38;;;;;;;14.45;3.83;;;;;;;;;;5007367;28;20045;-75
2023/12/09 12:57:05;;;;;;;12.65;3.00;;;;;;;;;;5005280;28;20933;-75
2023/12/09 12:59:31;;;;;;;15.45;3.40;;;;;;;;;;5015831;28;20057;-75
2023/12/09 13:01:59;;;;;;;13.38;3.15;;;;;;;;;;5013745;28;20471;-75
2023/12/09 13:04:25;;;;;;;14.57;3.63;;;;;;;;;;5006318;28;20188;-75
2023/12/09 13:06:51;;;;;;;17.38;4.22;;;;;;;;;;5006580;28;20107;-75
2023/12/09 13:09:17;;;;;;;14.05;3.63;;;;;;;;;;5012736;28;20049;-75
2023/12/09 13:11:43;;;;;;;14.30;3.40;;;;;;;;;;5008039;28;20045;-75
2023/12/09 13:14:09;;;;;;;15.00;3.30;;;;;;;;;;5007892;28;20052;-75
2023/12/09 13:16:39;;;;;;;15.10;3.58;;;;;;;;;;5011814;28;20050;-75
2023/12/09 13:19:05;;;;;;;12.60;3.40;;;;;;;;;;5012556;28;20054;-75
2023/12/09 13:21:31;;;;;;;15.68;3.88;;;;;;;;;;5008980;28;20176;-75
2023/12/09 13:23:57;;;;;;;14.20;3.65;;;;;;;;;;5013992;28;20125;-75
2023/12/09 13:26:23;;;;;;;13.50;3.60;;;;;;;;;;5015570;28;20490;-75
2023/12/09 13:28:50;;;;;;;15.15;3.30;;;;;;;;;;5010194;28;20045;-75
2023/12/09 13:31:16;;;;;;;15.82;3.53;;;;;;;;;;5007483;28;20071;-75
2023/12/09 13:33:42;;;;;;;14.00;3.58;;;;;;;;;;5010230;28;20137;-75
2023/12/09 13:36:12;;;;;;;16.55;3.92;;;;;;;;;;5008521;28;20575;-75
2023/12/09 13:38:38;;;;;;;13.55;3.65;;;;;;;;;;5003376;28;20073;-75
2023/12/09 13:41:04;;;;;;;16.27;3.75;;;;;;;;;;5008584;28;20046;-75
2023/12/09 13:43:31;;;;;;;12.50;3.70;;;;;;;;;;5008572;28;20054;-75
2023/12/09 13:45:57;;;;;;;14.32;3.10;;;;;;;;;;5007914;28;20534;-75
2023/12/09 13:48:23;;;;;;;18.13;3.60;;;;;;;;;;5009480;28;20060;-75
2023/12/09 13:50:50;;;;;;;19.45;4.38;;;;;;;;;;5009462;28;20491;-75
2023/12/09 13:53:16;;;;;;;14.32;3.30;;;;;;;;;;5011699;28;20045;-75
2023/12/09 13:55:43;;;;;;;12.63;3.33;;;;;;;;;;5014368;28;20057;-75
2023/12/09 13:58:09;;;;;;;12.65;3.05;;;;;;;;;;5011229;28;20052;-75
2023/12/09 14:00:36;;;;;;;12.98;3.72;;;;;;;;;;5014351;28;20044;-75
2023/12/09 14:03:02;;;;;;;12.77;3.08;;;;;;;;;;5015005;28;20046;-75
2023/12/09 14:05:28;;;;;;;14.02;3.30;;;;;;;;;;5013955;28;20096;-75
2023/12/09 14:07:54;;;;;;;12.93;3.13;;;;;;;;;;5012768;28;20045;-75
2023/12/09 14:10:20;;;;;;;11.57;3.00;;;;;;;;;;5009146;28;20435;-74
2023/12/09 14:12:47;;;;;;;14.25;3.53;;;;;;;;;;5014078;28;20038;-74
2023/12/09 14:15:14;;;;;;;16.38;3.42;;;;;;;;;;5014603;28;20058;-75
2023/12/09 14:17:41;;;;;;;14.70;3.10;;;;;;;;;;5010163;28;20042;-75